Bruck an der Leitha, Austria
Current Conditions -  °F | °C
As of 4:50 PM on Sunday 23 Nov 2014 (Local Time) from LOWW Reporting Station
Broken Clouds Broken Clouds  
Wind Chill: 37°   Ceiling: 2100
Heat Index: 43°   Visibility: 6mi
Dew Point: 37°   Wind: 9mph
Humidity: 81%   Direction: 140°SE
Pressure: 30.36"   Gusts: NA
Location:  48.02°N, 16.78°E
Report Text: LOWW 231550Z 14008KT 9999 BKN021 06/03 Q1028 NOSIG
Loading
Personal Weather Stations






























Interactive Weather Map New forecast layout! Learn more

10-Day Weather Forecast

Advertisements
Track Severe Weather on mobile